sensor_id;sensor_type;location;lat;lon;timestamp;P1;durP1;ratioP1;P2;durP2;ratioP2
67597;SDS011;62026;39.230;9.122;2023-04-29T00:00:10;5.63;;;1.92;;
67597;SDS011;62026;39.230;9.122;2023-04-29T00:02:37;6.97;;;1.95;;
67597;SDS011;62026;39.230;9.122;2023-04-29T00:05:03;5.53;;;1.88;;
67597;SDS011;62026;39.230;9.122;2023-04-29T00:07:30;7.57;;;2.55;;
67597;SDS011;62026;39.230;9.122;2023-04-29T00:09:57;7.57;;;2.22;;
67597;SDS011;62026;39.230;9.122;2023-04-29T00:12:23;13.43;;;2.78;;
67597;SDS011;62026;39.230;9.122;2023-04-29T00:14:49;8.68;;;2.78;;
67597;SDS011;62026;39.230;9.122;2023-04-29T00:17:15;7.03;;;2.53;;
67597;SDS011;62026;39.230;9.122;2023-04-29T00:19:41;10.30;;;3.08;;
67597;SDS011;62026;39.230;9.122;2023-04-29T00:22:07;7.30;;;2.97;;
67597;SDS011;62026;39.230;9.122;2023-04-29T00:24:33;7.13;;;2.45;;
67597;SDS011;62026;39.230;9.122;2023-04-29T00:27:00;9.48;;;3.08;;
67597;SDS011;62026;39.230;9.122;2023-04-29T00:29:30;7.22;;;2.47;;
67597;SDS011;62026;39.230;9.122;2023-04-29T00:31:56;9.60;;;3.00;;
67597;SDS011;62026;39.230;9.122;2023-04-29T00:34:22;8.57;;;2.67;;
67597;SDS011;62026;39.230;9.122;2023-04-29T00:36:48;5.47;;;2.03;;
67597;SDS011;62026;39.230;9.122;2023-04-29T00:39:16;8.02;;;2.80;;
67597;SDS011;62026;39.230;9.122;2023-04-29T00:41:42;9.93;;;2.40;;
67597;SDS011;62026;39.230;9.122;2023-04-29T00:44:08;7.28;;;2.33;;
67597;SDS011;62026;39.230;9.122;2023-04-29T00:46:34;6.30;;;2.22;;
67597;SDS011;62026;39.230;9.122;2023-04-29T00:49:01;5.88;;;2.28;;
67597;SDS011;62026;39.230;9.122;2023-04-29T00:51:28;10.45;;;2.40;;
67597;SDS011;62026;39.230;9.122;2023-04-29T00:53:54;6.90;;;2.10;;
67597;SDS011;62026;39.230;9.122;2023-04-29T00:56:21;5.47;;;1.95;;
67597;SDS011;62026;39.230;9.122;2023-04-29T00:58:47;11.85;;;2.10;;
67597;SDS011;62026;39.230;9.122;2023-04-29T01:01:18;5.22;;;2.10;;
67597;SDS011;62026;39.230;9.122;2023-04-29T01:03:44;3.88;;;2.05;;
67597;SDS011;62026;39.230;9.122;2023-04-29T01:12:14;8.38;;;2.03;;
67597;SDS011;62026;39.230;9.122;2023-04-29T01:17:50;5.43;;;1.80;;
67597;SDS011;62026;39.230;9.122;2023-04-29T01:20:29;6.50;;;1.90;;
67597;SDS011;62026;39.230;9.122;2023-04-29T01:22:58;5.82;;;1.65;;
67597;SDS011;62026;39.230;9.122;2023-04-29T01:25:24;4.68;;;1.63;;
67597;SDS011;62026;39.230;9.122;2023-04-29T01:28:15;7.97;;;2.33;;
67597;SDS011;62026;39.230;9.122;2023-04-29T01:31:07;8.13;;;2.25;;
67597;SDS011;62026;39.230;9.122;2023-04-29T01:34:18;5.82;;;1.95;;
67597;SDS011;62026;39.230;9.122;2023-04-29T01:40:16;7.28;;;2.08;;
67597;SDS011;62026;39.230;9.122;2023-04-29T01:43:03;8.45;;;2.08;;
67597;SDS011;62026;39.230;9.122;2023-04-29T01:45:37;6.20;;;2.30;;
67597;SDS011;62026;39.230;9.122;2023-04-29T01:48:07;6.77;;;2.17;;
67597;SDS011;62026;39.230;9.122;2023-04-29T01:50:35;5.60;;;2.30;;
67597;SDS011;62026;39.230;9.122;2023-04-29T01:53:10;6.70;;;2.38;;
67597;SDS011;62026;39.230;9.122;2023-04-29T01:55:36;9.63;;;2.30;;
67597;SDS011;62026;39.230;9.122;2023-04-29T01:58:19;7.20;;;1.98;;
67597;SDS011;62026;39.230;9.122;2023-04-29T02:01:15;7.50;;;2.40;;
67597;SDS011;62026;39.230;9.122;2023-04-29T02:03:41;6.72;;;2.60;;
67597;SDS011;62026;39.230;9.122;2023-04-29T02:06:09;6.75;;;2.20;;
67597;SDS011;62026;39.230;9.122;2023-04-29T02:08:35;5.55;;;2.20;;
67597;SDS011;62026;39.230;9.122;2023-04-29T02:11:01;6.82;;;2.38;;
67597;SDS011;62026;39.230;9.122;2023-04-29T02:13:33;4.85;;;2.22;;
67597;SDS011;62026;39.230;9.122;2023-04-29T02:16:06;14.40;;;2.80;;
67597;SDS011;62026;39.230;9.122;2023-04-29T02:18:35;9.00;;;2.60;;
67597;SDS011;62026;39.230;9.122;2023-04-29T02:21:03;6.57;;;2.63;;
67597;SDS011;62026;39.230;9.122;2023-04-29T02:23:32;9.85;;;2.88;;
67597;SDS011;62026;39.230;9.122;2023-04-29T02:26:00;9.70;;;3.30;;
67597;SDS011;62026;39.230;9.122;2023-04-29T02:28:26;7.55;;;2.78;;
67597;SDS011;62026;39.230;9.122;2023-04-29T02:30:52;12.02;;;2.78;;
67597;SDS011;62026;39.230;9.122;2023-04-29T02:33:19;9.13;;;3.00;;
67597;SDS011;62026;39.230;9.122;2023-04-29T02:35:45;8.75;;;2.83;;
67597;SDS011;62026;39.230;9.122;2023-04-29T02:38:11;12.93;;;3.28;;
67597;SDS011;62026;39.230;9.122;2023-04-29T02:40:43;10.23;;;3.08;;
67597;SDS011;62026;39.230;9.122;2023-04-29T02:43:10;5.72;;;2.85;;
67597;SDS011;62026;39.230;9.122;2023-04-29T02:45:37;8.80;;;3.58;;
67597;SDS011;62026;39.230;9.122;2023-04-29T02:48:04;11.48;;;3.03;;
67597;SDS011;62026;39.230;9.122;2023-04-29T02:50:31;9.98;;;2.95;;
67597;SDS011;62026;39.230;9.122;2023-04-29T02:52:58;6.85;;;2.65;;
67597;SDS011;62026;39.230;9.122;2023-04-29T02:55:24;13.07;;;2.72;;
67597;SDS011;62026;39.230;9.122;2023-04-29T02:57:53;8.75;;;2.88;;
67597;SDS011;62026;39.230;9.122;2023-04-29T03:00:19;10.55;;;2.90;;
67597;SDS011;62026;39.230;9.122;2023-04-29T03:02:46;12.88;;;3.85;;
67597;SDS011;62026;39.230;9.122;2023-04-29T03:05:13;8.75;;;2.75;;
67597;SDS011;62026;39.230;9.122;2023-04-29T03:07:39;7.85;;;2.58;;
67597;SDS011;62026;39.230;9.122;2023-04-29T03:10:05;9.30;;;2.97;;
67597;SDS011;62026;39.230;9.122;2023-04-29T03:12:35;8.55;;;2.38;;
67597;SDS011;62026;39.230;9.122;2023-04-29T03:15:01;9.20;;;2.72;;
67597;SDS011;62026;39.230;9.122;2023-04-29T03:17:27;8.20;;;2.88;;
67597;SDS011;62026;39.230;9.122;2023-04-29T03:19:53;7.63;;;2.40;;
67597;SDS011;62026;39.230;9.122;2023-04-29T03:22:19;6.90;;;2.45;;
67597;SDS011;62026;39.230;9.122;2023-04-29T03:24:46;14.45;;;2.72;;
67597;SDS011;62026;39.230;9.122;2023-04-29T03:27:12;7.68;;;2.28;;
67597;SDS011;62026;39.230;9.122;2023-04-29T03:29:39;9.02;;;2.58;;
67597;SDS011;62026;39.230;9.122;2023-04-29T03:32:05;7.03;;;2.38;;
67597;SDS011;62026;39.230;9.122;2023-04-29T03:34:32;11.48;;;2.47;;
67597;SDS011;62026;39.230;9.122;2023-04-29T03:37:16;10.10;;;3.00;;
67597;SDS011;62026;39.230;9.122;2023-04-29T03:39:46;7.53;;;2.45;;
67597;SDS011;62026;39.230;9.122;2023-04-29T03:42:12;10.63;;;2.70;;
67597;SDS011;62026;39.230;9.122;2023-04-29T03:44:38;8.27;;;3.03;;
67597;SDS011;62026;39.230;9.122;2023-04-29T03:47:04;11.02;;;3.22;;
67597;SDS011;62026;39.230;9.122;2023-04-29T03:49:31;11.77;;;3.45;;
67597;SDS011;62026;39.230;9.122;2023-04-29T03:51:57;12.77;;;3.40;;
67597;SDS011;62026;39.230;9.122;2023-04-29T03:54:23;9.20;;;3.33;;
67597;SDS011;62026;39.230;9.122;2023-04-29T03:56:49;10.23;;;2.83;;
67597;SDS011;62026;39.230;9.122;2023-04-29T03:59:15;7.68;;;2.90;;
67597;SDS011;62026;39.230;9.122;2023-04-29T04:01:41;10.10;;;3.42;;
67597;SDS011;62026;39.230;9.122;2023-04-29T04:04:07;9.23;;;3.00;;
67597;SDS011;62026;39.230;9.122;2023-04-29T04:06:36;9.13;;;2.95;;
67597;SDS011;62026;39.230;9.122;2023-04-29T04:09:03;9.35;;;2.70;;
67597;SDS011;62026;39.230;9.122;2023-04-29T04:11:32;12.52;;;3.58;;
67597;SDS011;62026;39.230;9.122;2023-04-29T04:14:01;13.27;;;3.70;;
67597;SDS011;62026;39.230;9.122;2023-04-29T04:16:28;12.23;;;3.50;;
67597;SDS011;62026;39.230;9.122;2023-04-29T04:18:54;11.43;;;3.20;;
67597;SDS011;62026;39.230;9.122;2023-04-29T04:21:20;10.88;;;3.00;;
67597;SDS011;62026;39.230;9.122;2023-04-29T04:23:54;8.30;;;3.40;;
67597;SDS011;62026;39.230;9.122;2023-04-29T04:26:22;9.07;;;3.00;;
67597;SDS011;62026;39.230;9.122;2023-04-29T04:28:48;8.50;;;2.75;;
67597;SDS011;62026;39.230;9.122;2023-04-29T04:31:21;11.73;;;3.25;;
67597;SDS011;62026;39.230;9.122;2023-04-29T04:33:47;9.80;;;3.30;;
67597;SDS011;62026;39.230;9.122;2023-04-29T04:36:13;19.05;;;4.28;;
67597;SDS011;62026;39.230;9.122;2023-04-29T04:38:39;13.23;;;3.75;;
67597;SDS011;62026;39.230;9.122;2023-04-29T04:41:09;15.95;;;3.50;;
67597;SDS011;62026;39.230;9.122;2023-04-29T04:43:37;9.80;;;3.65;;
67597;SDS011;62026;39.230;9.122;2023-04-29T04:46:12;15.18;;;4.20;;
67597;SDS011;62026;39.230;9.122;2023-04-29T04:49:00;20.85;;;5.03;;
67597;SDS011;62026;39.230;9.122;2023-04-29T04:51:27;13.32;;;4.25;;
67597;SDS011;62026;39.230;9.122;2023-04-29T04:53:53;13.02;;;4.00;;
67597;SDS011;62026;39.230;9.122;2023-04-29T04:56:22;13.02;;;4.47;;
67597;SDS011;62026;39.230;9.122;2023-04-29T04:58:48;15.02;;;4.40;;
67597;SDS011;62026;39.230;9.122;2023-04-29T05:01:14;21.20;;;4.35;;
67597;SDS011;62026;39.230;9.122;2023-04-29T05:03:40;16.27;;;3.88;;
67597;SDS011;62026;39.230;9.122;2023-04-29T05:06:06;13.10;;;4.30;;
67597;SDS011;62026;39.230;9.122;2023-04-29T05:08:32;10.48;;;4.30;;
67597;SDS011;62026;39.230;9.122;2023-04-29T05:11:01;14.82;;;3.78;;
67597;SDS011;62026;39.230;9.122;2023-04-29T05:13:27;11.45;;;4.10;;
67597;SDS011;62026;39.230;9.122;2023-04-29T05:15:53;12.93;;;3.97;;
67597;SDS011;62026;39.230;9.122;2023-04-29T05:18:23;11.65;;;3.70;;
67597;SDS011;62026;39.230;9.122;2023-04-29T05:20:50;17.75;;;3.88;;
67597;SDS011;62026;39.230;9.122;2023-04-29T05:23:16;15.73;;;4.20;;
67597;SDS011;62026;39.230;9.122;2023-04-29T05:25:44;13.27;;;3.88;;
67597;SDS011;62026;39.230;9.122;2023-04-29T05:28:10;10.80;;;3.60;;
67597;SDS011;62026;39.230;9.122;2023-04-29T05:30:40;13.98;;;4.32;;
67597;SDS011;62026;39.230;9.122;2023-04-29T05:33:06;11.98;;;3.78;;
67597;SDS011;62026;39.230;9.122;2023-04-29T05:35:32;13.13;;;3.47;;
67597;SDS011;62026;39.230;9.122;2023-04-29T05:37:59;11.82;;;3.75;;
67597;SDS011;62026;39.230;9.122;2023-04-29T05:40:47;13.43;;;4.05;;
67597;SDS011;62026;39.230;9.122;2023-04-29T05:43:29;12.20;;;3.60;;
67597;SDS011;62026;39.230;9.122;2023-04-29T05:45:56;10.70;;;3.50;;
67597;SDS011;62026;39.230;9.122;2023-04-29T05:48:22;12.10;;;3.88;;
67597;SDS011;62026;39.230;9.122;2023-04-29T05:50:49;16.42;;;3.70;;
67597;SDS011;62026;39.230;9.122;2023-04-29T05:53:15;12.60;;;3.30;;
67597;SDS011;62026;39.230;9.122;2023-04-29T05:55:42;12.75;;;3.80;;
67597;SDS011;62026;39.230;9.122;2023-04-29T05:58:10;13.15;;;2.88;;
67597;SDS011;62026;39.230;9.122;2023-04-29T06:00:37;12.27;;;3.42;;
67597;SDS011;62026;39.230;9.122;2023-04-29T06:03:10;12.38;;;3.63;;
67597;SDS011;62026;39.230;9.122;2023-04-29T06:05:36;18.35;;;3.95;;
67597;SDS011;62026;39.230;9.122;2023-04-29T06:08:17;10.80;;;3.55;;
67597;SDS011;62026;39.230;9.122;2023-04-29T06:10:59;8.35;;;3.00;;
67597;SDS011;62026;39.230;9.122;2023-04-29T06:13:27;11.35;;;3.17;;
67597;SDS011;62026;39.230;9.122;2023-04-29T06:15:55;11.30;;;3.05;;
67597;SDS011;62026;39.230;9.122;2023-04-29T06:18:21;12.10;;;2.97;;
67597;SDS011;62026;39.230;9.122;2023-04-29T06:20:47;11.18;;;3.13;;
67597;SDS011;62026;39.230;9.122;2023-04-29T06:23:13;14.85;;;3.05;;
67597;SDS011;62026;39.230;9.122;2023-04-29T06:25:40;8.43;;;2.97;;
67597;SDS011;62026;39.230;9.122;2023-04-29T06:28:08;8.02;;;3.00;;
67597;SDS011;62026;39.230;9.122;2023-04-29T06:30:35;10.82;;;3.17;;
67597;SDS011;62026;39.230;9.122;2023-04-29T06:33:01;12.23;;;3.25;;
67597;SDS011;62026;39.230;9.122;2023-04-29T06:35:27;17.35;;;3.47;;
67597;SDS011;62026;39.230;9.122;2023-04-29T06:38:10;10.68;;;3.22;;
67597;SDS011;62026;39.230;9.122;2023-04-29T06:40:59;17.98;;;3.75;;
67597;SDS011;62026;39.230;9.122;2023-04-29T06:43:49;8.43;;;2.72;;
67597;SDS011;62026;39.230;9.122;2023-04-29T06:46:34;11.82;;;2.92;;
67597;SDS011;62026;39.230;9.122;2023-04-29T06:49:05;8.52;;;2.10;;
67597;SDS011;62026;39.230;9.122;2023-04-29T06:51:31;13.77;;;2.53;;
67597;SDS011;62026;39.230;9.122;2023-04-29T06:53:58;10.98;;;2.70;;
67597;SDS011;62026;39.230;9.122;2023-04-29T06:56:24;10.05;;;2.45;;
67597;SDS011;62026;39.230;9.122;2023-04-29T06:58:50;7.53;;;2.42;;
67597;SDS011;62026;39.230;9.122;2023-04-29T07:01:16;8.10;;;2.45;;
67597;SDS011;62026;39.230;9.122;2023-04-29T07:03:42;14.07;;;2.72;;
67597;SDS011;62026;39.230;9.122;2023-04-29T07:06:08;13.77;;;2.63;;
67597;SDS011;62026;39.230;9.122;2023-04-29T07:08:34;15.57;;;2.45;;
67597;SDS011;62026;39.230;9.122;2023-04-29T07:11:00;15.00;;;2.65;;
67597;SDS011;62026;39.230;9.122;2023-04-29T07:13:26;10.52;;;2.70;;
67597;SDS011;62026;39.230;9.122;2023-04-29T07:15:52;11.23;;;2.60;;
67597;SDS011;62026;39.230;9.122;2023-04-29T07:18:18;14.38;;;2.78;;
67597;SDS011;62026;39.230;9.122;2023-04-29T07:20:44;12.85;;;2.70;;
67597;SDS011;62026;39.230;9.122;2023-04-29T07:23:12;13.40;;;2.65;;
67597;SDS011;62026;39.230;9.122;2023-04-29T07:25:39;14.70;;;3.05;;
67597;SDS011;62026;39.230;9.122;2023-04-29T07:28:05;9.63;;;2.10;;
67597;SDS011;62026;39.230;9.122;2023-04-29T07:30:33;17.83;;;3.20;;
67597;SDS011;62026;39.230;9.122;2023-04-29T07:32:59;13.20;;;2.90;;
67597;SDS011;62026;39.230;9.122;2023-04-29T07:35:25;14.82;;;3.00;;
67597;SDS011;62026;39.230;9.122;2023-04-29T07:37:51;12.38;;;2.33;;
67597;SDS011;62026;39.230;9.122;2023-04-29T07:40:17;19.42;;;2.83;;
67597;SDS011;62026;39.230;9.122;2023-04-29T07:42:44;18.35;;;2.75;;
67597;SDS011;62026;39.230;9.122;2023-04-29T07:45:10;16.38;;;3.35;;
67597;SDS011;62026;39.230;9.122;2023-04-29T07:47:38;13.35;;;2.67;;
67597;SDS011;62026;39.230;9.122;2023-04-29T07:50:04;14.38;;;2.60;;
67597;SDS011;62026;39.230;9.122;2023-04-29T07:52:30;12.50;;;2.55;;
67597;SDS011;62026;39.230;9.122;2023-04-29T07:54:56;11.93;;;2.67;;
67597;SDS011;62026;39.230;9.122;2023-04-29T07:57:23;12.52;;;3.22;;
67597;SDS011;62026;39.230;9.122;2023-04-29T07:59:52;17.10;;;3.28;;
67597;SDS011;62026;39.230;9.122;2023-04-29T08:02:19;13.57;;;3.03;;
67597;SDS011;62026;39.230;9.122;2023-04-29T08:04:46;13.18;;;2.90;;
67597;SDS011;62026;39.230;9.122;2023-04-29T08:07:12;18.77;;;3.28;;
67597;SDS011;62026;39.230;9.122;2023-04-29T08:09:38;25.55;;;3.55;;
67597;SDS011;62026;39.230;9.122;2023-04-29T08:12:05;17.20;;;3.00;;
67597;SDS011;62026;39.230;9.122;2023-04-29T08:14:31;13.98;;;2.88;;
67597;SDS011;62026;39.230;9.122;2023-04-29T08:16:58;15.43;;;2.53;;
67597;SDS011;62026;39.230;9.122;2023-04-29T08:19:24;17.73;;;3.20;;
67597;SDS011;62026;39.230;9.122;2023-04-29T08:21:52;17.33;;;3.42;;
67597;SDS011;62026;39.230;9.122;2023-04-29T08:24:18;16.27;;;3.15;;
67597;SDS011;62026;39.230;9.122;2023-04-29T08:26:46;22.60;;;3.20;;
67597;SDS011;62026;39.230;9.122;2023-04-29T08:29:12;16.38;;;3.13;;
67597;SDS011;62026;39.230;9.122;2023-04-29T08:31:38;14.77;;;2.65;;
67597;SDS011;62026;39.230;9.122;2023-04-29T08:34:05;18.75;;;3.17;;
67597;SDS011;62026;39.230;9.122;2023-04-29T08:36:31;15.10;;;3.08;;
67597;SDS011;62026;39.230;9.122;2023-04-29T08:38:57;16.88;;;3.30;;
67597;SDS011;62026;39.230;9.122;2023-04-29T08:41:23;20.65;;;2.95;;
67597;SDS011;62026;39.230;9.122;2023-04-29T08:43:49;14.05;;;2.28;;
67597;SDS011;62026;39.230;9.122;2023-04-29T08:46:15;18.42;;;3.30;;
67597;SDS011;62026;39.230;9.122;2023-04-29T08:48:43;14.65;;;3.17;;
67597;SDS011;62026;39.230;9.122;2023-04-29T08:51:10;16.17;;;2.70;;
67597;SDS011;62026;39.230;9.122;2023-04-29T08:53:40;14.02;;;2.90;;
67597;SDS011;62026;39.230;9.122;2023-04-29T08:56:13;17.48;;;3.47;;
67597;SDS011;62026;39.230;9.122;2023-04-29T08:58:44;18.92;;;2.65;;
67597;SDS011;62026;39.230;9.122;2023-04-29T09:01:11;15.40;;;2.65;;
67597;SDS011;62026;39.230;9.122;2023-04-29T09:04:25;19.67;;;3.20;;
67597;SDS011;62026;39.230;9.122;2023-04-29T09:07:04;13.07;;;2.75;;
67597;SDS011;62026;39.230;9.122;2023-04-29T09:09:32;10.15;;;2.28;;
67597;SDS011;62026;39.230;9.122;2023-04-29T09:11:58;17.98;;;2.83;;
67597;SDS011;62026;39.230;9.122;2023-04-29T09:14:24;15.35;;;2.60;;
67597;SDS011;62026;39.230;9.122;2023-04-29T09:16:50;16.80;;;3.30;;
67597;SDS011;62026;39.230;9.122;2023-04-29T09:19:29;18.63;;;3.33;;
67597;SDS011;62026;39.230;9.122;2023-04-29T09:21:59;14.38;;;3.00;;
67597;SDS011;62026;39.230;9.122;2023-04-29T09:24:31;12.85;;;2.67;;
67597;SDS011;62026;39.230;9.122;2023-04-29T09:26:57;19.42;;;2.95;;
67597;SDS011;62026;39.230;9.122;2023-04-29T09:29:24;14.10;;;2.55;;
67597;SDS011;62026;39.230;9.122;2023-04-29T09:31:50;18.08;;;3.53;;
67597;SDS011;62026;39.230;9.122;2023-04-29T09:34:31;19.02;;;3.03;;
67597;SDS011;62026;39.230;9.122;2023-04-29T09:37:03;14.57;;;2.50;;
67597;SDS011;62026;39.230;9.122;2023-04-29T09:39:50;15.38;;;3.58;;
67597;SDS011;62026;39.230;9.122;2023-04-29T09:42:16;19.48;;;2.92;;
67597;SDS011;62026;39.230;9.122;2023-04-29T09:44:42;14.93;;;2.72;;
67597;SDS011;62026;39.230;9.122;2023-04-29T09:47:09;18.73;;;3.28;;
67597;SDS011;62026;39.230;9.122;2023-04-29T09:49:38;22.70;;;5.32;;
67597;SDS011;62026;39.230;9.122;2023-04-29T09:52:10;24.50;;;4.55;;
67597;SDS011;62026;39.230;9.122;2023-04-29T09:54:39;21.35;;;5.13;;
67597;SDS011;62026;39.230;9.122;2023-04-29T09:57:07;27.35;;;4.22;;
67597;SDS011;62026;39.230;9.122;2023-04-29T09:59:36;16.83;;;3.83;;
67597;SDS011;62026;39.230;9.122;2023-04-29T10:02:14;19.42;;;3.55;;
67597;SDS011;62026;39.230;9.122;2023-04-29T10:04:46;19.15;;;3.35;;
67597;SDS011;62026;39.230;9.122;2023-04-29T10:07:21;16.13;;;3.13;;
67597;SDS011;62026;39.230;9.122;2023-04-29T10:09:50;15.02;;;3.20;;
67597;SDS011;62026;39.230;9.122;2023-04-29T10:12:18;17.92;;;3.17;;
67597;SDS011;62026;39.230;9.122;2023-04-29T10:15:48;17.35;;;3.22;;
67597;SDS011;62026;39.230;9.122;2023-04-29T10:18:13;20.23;;;3.08;;
67597;SDS011;62026;39.230;9.122;2023-04-29T10:20:46;15.05;;;3.15;;
67597;SDS011;62026;39.230;9.122;2023-04-29T10:23:14;23.80;;;3.22;;
67597;SDS011;62026;39.230;9.122;2023-04-29T10:25:42;19.92;;;2.95;;
67597;SDS011;62026;39.230;9.122;2023-04-29T10:28:14;20.63;;;2.83;;
67597;SDS011;62026;39.230;9.122;2023-04-29T10:30:42;18.48;;;3.50;;
67597;SDS011;62026;39.230;9.122;2023-04-29T10:33:10;21.88;;;3.63;;
67597;SDS011;62026;39.230;9.122;2023-04-29T10:35:41;19.27;;;3.17;;
67597;SDS011;62026;39.230;9.122;2023-04-29T10:38:14;19.73;;;3.22;;
67597;SDS011;62026;39.230;9.122;2023-04-29T10:40:50;18.45;;;2.80;;
67597;SDS011;62026;39.230;9.122;2023-04-29T10:43:24;15.63;;;2.88;;
67597;SDS011;62026;39.230;9.122;2023-04-29T10:49:01;15.60;;;2.55;;
67597;SDS011;62026;39.230;9.122;2023-04-29T10:51:33;14.70;;;2.58;;
67597;SDS011;62026;39.230;9.122;2023-04-29T10:56:39;15.27;;;3.55;;
67597;SDS011;62026;39.230;9.122;2023-04-29T10:59:10;14.32;;;2.50;;
67597;SDS011;62026;39.230;9.122;2023-04-29T11:01:39;20.17;;;2.60;;
67597;SDS011;62026;39.230;9.122;2023-04-29T11:04:13;16.63;;;2.75;;
67597;SDS011;62026;39.230;9.122;2023-04-29T11:06:40;17.17;;;3.42;;
67597;SDS011;62026;39.230;9.122;2023-04-29T11:09:20;14.77;;;2.72;;
67597;SDS011;62026;39.230;9.122;2023-04-29T11:17:08;15.18;;;3.22;;
67597;SDS011;62026;39.230;9.122;2023-04-29T11:19:41;11.88;;;2.42;;
67597;SDS011;62026;39.230;9.122;2023-04-29T11:22:23;15.27;;;2.90;;
67597;SDS011;62026;39.230;9.122;2023-04-29T11:27:28;18.65;;;2.72;;
67597;SDS011;62026;39.230;9.122;2023-04-29T11:30:01;13.68;;;2.60;;
67597;SDS011;62026;39.230;9.122;2023-04-29T11:32:31;16.38;;;2.88;;
67597;SDS011;62026;39.230;9.122;2023-04-29T11:35:11;12.73;;;2.67;;
67597;SDS011;62026;39.230;9.122;2023-04-29T11:37:43;17.92;;;3.10;;
67597;SDS011;62026;39.230;9.122;2023-04-29T11:40:11;15.45;;;2.80;;
67597;SDS011;62026;39.230;9.122;2023-04-29T11:42:45;13.48;;;2.58;;
67597;SDS011;62026;39.230;9.122;2023-04-29T11:45:13;17.27;;;3.15;;
67597;SDS011;62026;39.230;9.122;2023-04-29T11:47:42;19.95;;;3.58;;
67597;SDS011;62026;39.230;9.122;2023-04-29T11:50:10;19.75;;;2.92;;
67597;SDS011;62026;39.230;9.122;2023-04-29T11:52:37;18.67;;;3.20;;
67597;SDS011;62026;39.230;9.122;2023-04-29T11:55:05;14.15;;;2.90;;
67597;SDS011;62026;39.230;9.122;2023-04-29T11:57:34;14.90;;;3.15;;
67597;SDS011;62026;39.230;9.122;2023-04-29T12:00:01;13.63;;;3.03;;
67597;SDS011;62026;39.230;9.122;2023-04-29T12:02:32;12.90;;;3.08;;
67597;SDS011;62026;39.230;9.122;2023-04-29T12:04:59;11.30;;;2.58;;
67597;SDS011;62026;39.230;9.122;2023-04-29T12:07:32;15.52;;;2.78;;
67597;SDS011;62026;39.230;9.122;2023-04-29T12:09:58;12.00;;;2.55;;
67597;SDS011;62026;39.230;9.122;2023-04-29T12:12:24;10.43;;;2.60;;
67597;SDS011;62026;39.230;9.122;2023-04-29T12:14:55;11.37;;;2.40;;
67597;SDS011;62026;39.230;9.122;2023-04-29T12:17:22;14.73;;;2.80;;
67597;SDS011;62026;39.230;9.122;2023-04-29T12:19:48;12.85;;;2.97;;
67597;SDS011;62026;39.230;9.122;2023-04-29T12:22:15;8.93;;;2.47;;
67597;SDS011;62026;39.230;9.122;2023-04-29T12:24:43;19.27;;;3.53;;
67597;SDS011;62026;39.230;9.122;2023-04-29T12:27:09;15.90;;;2.97;;
67597;SDS011;62026;39.230;9.122;2023-04-29T12:29:36;17.25;;;2.88;;
67597;SDS011;62026;39.230;9.122;2023-04-29T12:32:03;16.35;;;3.67;;
67597;SDS011;62026;39.230;9.122;2023-04-29T12:34:30;16.50;;;3.47;;
67597;SDS011;62026;39.230;9.122;2023-04-29T12:36:57;15.13;;;3.17;;
67597;SDS011;62026;39.230;9.122;2023-04-29T12:39:27;17.13;;;3.83;;
67597;SDS011;62026;39.230;9.122;2023-04-29T12:41:58;23.38;;;3.25;;
67597;SDS011;62026;39.230;9.122;2023-04-29T12:44:37;15.43;;;3.45;;
67597;SDS011;62026;39.230;9.122;2023-04-29T12:47:11;19.00;;;3.63;;
67597;SDS011;62026;39.230;9.122;2023-04-29T12:49:44;15.38;;;3.35;;
67597;SDS011;62026;39.230;9.122;2023-04-29T12:52:12;14.45;;;3.33;;
67597;SDS011;62026;39.230;9.122;2023-04-29T12:54:38;17.38;;;3.80;;
67597;SDS011;62026;39.230;9.122;2023-04-29T12:57:08;13.75;;;3.22;;
67597;SDS011;62026;39.230;9.122;2023-04-29T12:59:36;14.20;;;3.17;;
67597;SDS011;62026;39.230;9.122;2023-04-29T13:02:02;12.65;;;3.30;;
67597;SDS011;62026;39.230;9.122;2023-04-29T13:04:29;16.80;;;3.20;;
67597;SDS011;62026;39.230;9.122;2023-04-29T13:06:55;19.42;;;3.60;;
67597;SDS011;62026;39.230;9.122;2023-04-29T13:09:25;13.80;;;3.92;;
67597;SDS011;62026;39.230;9.122;2023-04-29T13:11:51;17.25;;;3.45;;
67597;SDS011;62026;39.230;9.122;2023-04-29T13:14:17;15.50;;;3.25;;
67597;SDS011;62026;39.230;9.122;2023-04-29T13:16:43;18.50;;;3.30;;
67597;SDS011;62026;39.230;9.122;2023-04-29T13:19:10;15.95;;;2.92;;
67597;SDS011;62026;39.230;9.122;2023-04-29T13:21:37;18.50;;;3.30;;
67597;SDS011;62026;39.230;9.122;2023-04-29T13:24:03;10.07;;;2.60;;
67597;SDS011;62026;39.230;9.122;2023-04-29T13:26:29;15.18;;;2.95;;
67597;SDS011;62026;39.230;9.122;2023-04-29T13:28:56;11.23;;;2.78;;
67597;SDS011;62026;39.230;9.122;2023-04-29T13:31:22;14.23;;;2.70;;
67597;SDS011;62026;39.230;9.122;2023-04-29T13:33:48;14.48;;;3.03;;
67597;SDS011;62026;39.230;9.122;2023-04-29T13:36:14;14.07;;;2.78;;
67597;SDS011;62026;39.230;9.122;2023-04-29T13:38:40;13.20;;;2.75;;
67597;SDS011;62026;39.230;9.122;2023-04-29T13:41:06;13.52;;;3.35;;
67597;SDS011;62026;39.230;9.122;2023-04-29T13:43:32;14.85;;;3.00;;
67597;SDS011;62026;39.230;9.122;2023-04-29T13:45:58;16.90;;;3.30;;
67597;SDS011;62026;39.230;9.122;2023-04-29T13:48:24;18.33;;;3.40;;
67597;SDS011;62026;39.230;9.122;2023-04-29T13:50:50;11.18;;;2.67;;
67597;SDS011;62026;39.230;9.122;2023-04-29T13:53:16;16.83;;;2.90;;
67597;SDS011;62026;39.230;9.122;2023-04-29T13:55:42;19.73;;;3.10;;
67597;SDS011;62026;39.230;9.122;2023-04-29T13:58:08;14.00;;;2.83;;
67597;SDS011;62026;39.230;9.122;2023-04-29T14:00:34;12.13;;;2.88;;
67597;SDS011;62026;39.230;9.122;2023-04-29T14:03:00;12.35;;;3.47;;
67597;SDS011;62026;39.230;9.122;2023-04-29T14:05:26;13.77;;;3.42;;
67597;SDS011;62026;39.230;9.122;2023-04-29T14:07:52;11.50;;;2.90;;
67597;SDS011;62026;39.230;9.122;2023-04-29T14:10:18;20.70;;;3.63;;
67597;SDS011;62026;39.230;9.122;2023-04-29T14:12:45;18.60;;;3.40;;
67597;SDS011;62026;39.230;9.122;2023-04-29T14:15:12;13.63;;;3.33;;
67597;SDS011;62026;39.230;9.122;2023-04-29T14:17:39;15.35;;;3.60;;
67597;SDS011;62026;39.230;9.122;2023-04-29T14:20:05;17.80;;;3.88;;
67597;SDS011;62026;39.230;9.122;2023-04-29T14:22:32;11.75;;;3.67;;
67597;SDS011;62026;39.230;9.122;2023-04-29T14:24:58;11.93;;;3.50;;
67597;SDS011;62026;39.230;9.122;2023-04-29T14:27:24;20.67;;;3.72;;
67597;SDS011;62026;39.230;9.122;2023-04-29T14:29:50;24.70;;;3.75;;
67597;SDS011;62026;39.230;9.122;2023-04-29T14:32:16;13.60;;;3.53;;
67597;SDS011;62026;39.230;9.122;2023-04-29T14:34:42;18.38;;;4.35;;
67597;SDS011;62026;39.230;9.122;2023-04-29T14:37:08;18.10;;;4.38;;
67597;SDS011;62026;39.230;9.122;2023-04-29T14:39:35;14.77;;;3.50;;
67597;SDS011;62026;39.230;9.122;2023-04-29T14:42:01;18.45;;;3.92;;
67597;SDS011;62026;39.230;9.122;2023-04-29T14:44:27;12.98;;;2.88;;
67597;SDS011;62026;39.230;9.122;2023-04-29T14:46:53;12.18;;;2.75;;
67597;SDS011;62026;39.230;9.122;2023-04-29T14:49:19;9.63;;;2.90;;
67597;SDS011;62026;39.230;9.122;2023-04-29T14:51:45;8.60;;;2.97;;
67597;SDS011;62026;39.230;9.122;2023-04-29T14:54:11;25.45;;;4.20;;
67597;SDS011;62026;39.230;9.122;2023-04-29T14:56:37;13.32;;;3.75;;
67597;SDS011;62026;39.230;9.122;2023-04-29T14:59:03;16.73;;;3.65;;
67597;SDS011;62026;39.230;9.122;2023-04-29T15:01:31;14.45;;;3.42;;
67597;SDS011;62026;39.230;9.122;2023-04-29T15:03:58;16.00;;;4.30;;
67597;SDS011;62026;39.230;9.122;2023-04-29T15:06:25;12.82;;;3.38;;
67597;SDS011;62026;39.230;9.122;2023-04-29T15:08:52;14.70;;;3.83;;
67597;SDS011;62026;39.230;9.122;2023-04-29T15:11:18;17.20;;;4.53;;
67597;SDS011;62026;39.230;9.122;2023-04-29T15:13:44;22.83;;;4.43;;